• Join FlightAware (Why Join?)
  • Login
  • US Flag 
02:33AM EDT


 

Airport Tracker/Info


-or-


 

Live Flight TrackerFlight Track Log ✈ JZA7995 ✈ 17-Apr-2013 ✈ CYYZ - KDFW

Flight Track Log - Related Links

Times and Time Zones

All times are in EDT time to prevent confusion due to time zone crossing. See the JZA7995 flight status page for this flight to view local times or setup timezone preferences in your user account.

Time Position Orientation Groundspeed Altitude Reporting Facility
EDT Latitude Longitude Course Direction KTS MPH feet Rate Location/Type
07:39PM 43.6667 -79.5833 360° North 10 12 500  Level Toronto Center
07:41PM 43.6667 -79.5833 216° Southwest 10 12 500  Level Toronto Center
07:42PM 43.6667 -79.6167 270° West 10 12 500  Level Toronto Center
07:45PM 43.6667 -79.6167 144° Southeast 40 46 500  Level Toronto Center
07:46PM 43.6833 -79.6167 360° North 20 23 500  Level Toronto Center
07:47PM 43.6833 -79.6333 270° West 20 23 500  Level Toronto Center
07:48PM 43.6667 -79.6333 180° South 20 23 500  Level Toronto Center
07:49PM 43.6667 -79.6333 180° South 30 35 500  Level Toronto Center
07:50PM 43.6667 -79.6333 216° Southwest 10 12 500  Level Toronto Center
07:52PM 43.6667 -79.6333 216° Southwest 90 104 500 660 Level Toronto Center
07:53PM 43.7167 -79.5833 36° Northeast 170 196 2,600 2,400 Climbing Toronto Center
07:54PM 43.7667 -79.5833 360° North 210 242 5,400 2,100 Climbing Toronto Center
07:55PM 43.7833 -79.6833 283° West 260 299 6,900 780 Climbing Toronto Center
07:56PM 43.7833 -79.7667 270° West 260 299 7,000 420 Climbing Toronto Center
07:57PM 43.7833 -79.8667 270° West 260 299 7,800 2,040 Climbing Toronto Center
07:58PM 43.7667 -79.9833 259° West 260 299 11,100 2,220 Climbing Toronto Center
07:59PM 43.7667 -80.1000 270° West 290 334 12,300 1,200 Climbing Toronto Center
08:00PM 43.7500 -80.2333 260° West 350 403 13,600 1,800 Climbing Toronto Center
08:01PM 43.7000 -80.3500 239° Southwest 360 414 16,000 2,040 Climbing Toronto Center
08:02PM 43.6333 -80.4667 232° Southwest 370 426 17,700 1,800 Climbing Toronto Center
08:03PM 43.5833 -80.5833 239° Southwest 380 437 19,600 1,560 Climbing Toronto Center
08:04PM 43.5167 -80.6833 227° Southwest 380 437 20,900 1,200 Climbing Toronto Center
08:05PM 43.4333 -80.8333 233° Southwest 390 449 22,100 1,080 Climbing Toronto Center
08:06PM 43.3667 -80.9333 227° Southwest 410 472 23,100 1,140 Climbing Toronto Center
08:07PM 43.3000 -81.0833 239° Southwest 410 472 24,400 1,140 Climbing Toronto Center
08:08PM 43.2500 -81.2167 243° Southwest 420 483 25,400 1,200 Climbing Toronto Center
08:09PM 43.1667 -81.3500 229° Southwest 430 495 26,900 1,500 Climbing Toronto Center
08:10PM 43.1000 -81.4833 236° Southwest 430 495 28,400 1,380 Climbing Toronto Center
08:11PM 43.0500 -81.6000 240° Southwest 420 483 29,700 1,440 Climbing Toronto Center
08:12PM 42.9667 -81.7333 230° Southwest 420 483 31,300 1,500 Climbing Toronto Center
08:13PM 42.9167 -81.8667 243° Southwest 410 472 32,700 1,200 Climbing Toronto Center
08:14PM 42.8708 -81.9542 234° Southwest 420 483 33,400 1,140 Climbing Cleveland Center
08:15PM 42.8047 -82.0772 234° Southwest 409 471 34,700 1,080 Climbing Cleveland Center
08:16PM 42.7406 -82.1975 234° Southwest 404 465 35,600 960 Climbing Cleveland Center
08:17PM 42.6764 -82.3144 233° Southwest 404 465 36,700 1,020 Climbing Cleveland Center
08:18PM 42.6142 -82.4311 234° Southwest 399 459 37,700 600 Climbing Cleveland Center
08:19PM 42.5519 -82.5447 233° Southwest 399 459 38,000 120 Climbing Cleveland Center
08:20PM 42.4872 -82.6639 234° Southwest 399 459 38,000  Level Cleveland Center
08:21PM 42.4203 -82.7856 233° Southwest 404 465 38,100  Climbing Cleveland Center
08:22PM 42.3578 -82.8986 233° Southwest 399 459 38,100  Level Cleveland Center
08:23PM 42.2969 -83.0086 233° Southwest 393 452 38,100 -60 Level Cleveland Center
08:24PM 42.2342 -83.1156 232° Southwest 380 437 38,000 -60 Descending Cleveland Center
08:25PM 42.1731 -83.2364 236° Southwest 383 441 38,000  Level Cleveland Center
08:26PM 42.1167 -83.3378 233° Southwest 396 456 38,000  Level Cleveland Center
08:27PM 42.0492 -83.4550 232° Southwest 396 456 38,000  Level Cleveland Center
08:28PM 41.9769 -83.5803 232° Southwest 402 463 38,000  Level Cleveland Center
08:29PM 41.8967 -83.7075 230° Southwest 407 468 38,000  Level Cleveland Center
08:30PM 41.8267 -83.8214 231° Southwest 407 468 38,000  Level Cleveland Center
08:32PM 41.6833 -84.0594 231° Southwest 401 461 38,000  Level Chicago Center
08:33PM 41.6125 -84.1736 230° Southwest 400 460 38,000  Level Chicago Center
08:34PM 41.5408 -84.2853 229° Southwest 396 456 38,000  Level Chicago Center
08:35PM 41.4422 -84.3675 212° Southwest 410 472 38,000  Level Chicago Center
08:36PM 41.3453 -84.4486 212° Southwest 412 474 38,000  Level Chicago Center
08:37PM 41.2469 -84.5286 211° Southwest 411 473 38,000  Level Chicago Center
08:38PM 41.1483 -84.6114 212° Southwest 416 479 38,000  Level Chicago Center
08:39PM 41.0489 -84.6922 212° Southwest 418 481 38,000  Level Chicago Center
08:40PM 40.9506 -84.7725 212° Southwest 416 479 38,000  Level Chicago Center
08:41PM 40.8486 -84.8558 212° Southwest 424 488 38,000  Level Chicago Center
08:42PM 40.7269 -84.9539 211° Southwest 426 490 38,000  Level Chicago Center
08:43PM 40.6256 -85.0375 212° Southwest 428 493 38,000  Level Chicago Center
08:44PM 40.5822 -85.0733 212° Southwest 431 496 38,000  Level Indianapolis Center
08:45PM 40.4789 -85.1544 211° Southwest 430 495 38,000  Level Indianapolis Center
08:45PM 40.4194 -85.2019 211° Southwest 433 498 38,000  Level Chicago Center
08:46PM 40.3747 -85.2394 213° Southwest 437 503 38,000 -120 Level Indianapolis Center
08:47PM 40.2689 -85.3233 211° Southwest 440 506 37,900  Descending Indianapolis Center
08:48PM 40.1636 -85.4064 211° Southwest 439 505 38,000 60 Climbing Indianapolis Center
08:48PM 40.1058 -85.4514 211° Southwest 441 507 38,000  Level Chicago Center
08:49PM 40.0397 -85.5047 212° Southwest 441 507 38,000  Level Indianapolis Center
08:50PM 39.9336 -85.5881 211° Southwest 442 509 38,000  Level Indianapolis Center
08:51PM 39.8275 -85.6714 211° Southwest 443 510 38,000  Level Indianapolis Center
08:52PM 39.7228 -85.7536 211° Southwest 439 505 38,000  Level Indianapolis Center
08:53PM 39.6242 -85.8619 220° Southwest 445 512 38,000  Level Indianapolis Center
08:54PM 39.5617 -85.9956 239° Southwest 436 502 38,000  Level Indianapolis Center
08:55PM 39.5042 -86.1336 242° Southwest 435 501 38,000  Level Indianapolis Center
08:56PM 39.4461 -86.2694 241° Southwest 433 498 38,000  Level Indianapolis Center
08:57PM 39.3886 -86.4067 242° Southwest 433 498 38,000  Level Indianapolis Center
08:58PM 39.3308 -86.5447 242° Southwest 435 501 38,000  Level Indianapolis Center
08:59PM 39.2731 -86.6811 241° Southwest 434 499 38,000  Level Indianapolis Center
09:00PM 39.2153 -86.8156 241° Southwest 431 496 38,000  Level Indianapolis Center
09:01PM 39.1575 -86.9511 241° Southwest 431 496 38,000  Level Indianapolis Center
09:02PM 39.0997 -87.0864 241° Southwest 430 495 38,000  Level Indianapolis Center
09:03PM 39.0408 -87.2200 240° Southwest 430 495 38,000  Level Indianapolis Center
09:04PM 38.9725 -87.3808 241° Southwest 429 494 38,000  Level Indianapolis Center
09:05PM 38.9144 -87.5131 241° Southwest 427 491 38,000  Level Indianapolis Center
09:06PM 38.8572 -87.6419 240° Southwest 421 484 38,000  Level Indianapolis Center
09:07PM 38.8014 -87.7703 241° Southwest 416 479 38,000  Level Indianapolis Center
09:08PM 38.7458 -87.8958 240° Southwest 410 472 38,000  Level Indianapolis Center
09:09PM 38.7119 -87.9728 241° Southwest 407 468 38,000  Level Kansas City Center
09:10PM 38.6550 -88.1044 241° Southwest 418 481 38,000  Level Kansas City Center
09:11PM 38.5933 -88.2411 240° Southwest 435 501 38,000  Level Kansas City Center
09:12PM 38.5183 -88.4064 240° Southwest 446 513 38,000  Level Kansas City Center
09:13PM 38.4567 -88.5447 240° Southwest 448 516 38,000  Level Kansas City Center
09:14PM 38.3944 -88.6828 240° Southwest 449 517 38,000  Level Kansas City Center
09:15PM 38.3319 -88.8175 239° Southwest 454 522 38,000  Level Kansas City Center
09:16PM 38.2692 -88.9550 240° Southwest 450 518 38,000  Level Kansas City Center
09:17PM 38.1983 -89.1100 240° Southwest 455 524 38,000  Level Kansas City Center
09:18PM 38.1347 -89.2467 239° Southwest 452 520 38,000  Level Kansas City Center
09:19PM 38.0675 -89.3942 240° Southwest 448 516 38,000  Level Kansas City Center
09:20PM 38.0039 -89.5311 240° Southwest 449 517 38,000  Level Kansas City Center
09:21PM 37.9400 -89.6683 239° Southwest 450 518 38,000  Level Kansas City Center
09:22PM 37.8753 -89.8067 239° Southwest 455 524 38,000  Level Kansas City Center
09:23PM 37.8092 -89.9464 239° Southwest 456 525 38,000  Level Kansas City Center
09:24PM 37.7433 -90.0853 239° Southwest 456 525 38,000  Level Kansas City Center
09:25PM 37.6775 -90.2253 239° Southwest 460 529 38,000  Level Kansas City Center
09:26PM 37.6064 -90.3600 236° Southwest 461 531 38,000  Level Kansas City Center
09:27PM 37.5367 -90.4906 236° Southwest 455 524 38,000  Level Kansas City Center
09:29PM 37.4678 -90.6192 236° Southwest 447 514 38,000  Level Kansas City Center
09:30PM 37.3989 -90.7447 235° Southwest 440 506 38,000  Level Kansas City Center
09:31PM 37.3261 -90.8778 236° Southwest 434 499 38,000  Level Kansas City Center
09:32PM 37.2581 -91.0042 236° Southwest 434 499 38,000  Level Kansas City Center
09:33PM 37.1881 -91.1294 235° Southwest 436 502 38,000  Level Kansas City Center
09:34PM 37.1225 -91.2503 236° Southwest 425 489 38,000  Level Kansas City Center
09:34PM 37.0675 -91.3500 235° Southwest 436 502 38,000  Level Memphis Center
09:35PM 37.0425 -91.3942 235° Southwest 419 482 38,000  Level Kansas City Center
09:36PM 36.9772 -91.5131 236° Southwest 416 479 38,000  Level Kansas City Center
09:37PM 36.9131 -91.6294 235° Southwest 409 471 38,000  Level Kansas City Center
09:37PM 36.8725 -91.7028 235° Southwest 418 481 38,000  Level Memphis Center
09:38PM 36.8044 -91.8236 235° Southwest 423 487 38,000  Level Memphis Center
09:39PM 36.7386 -91.9414 235° Southwest 428 493 38,000  Level Memphis Center
09:40PM 36.6722 -92.0644 236° Southwest 428 493 38,000  Level Memphis Center
09:41PM 36.6061 -92.1844 236° Southwest 428 493 38,000  Level Memphis Center
09:42PM 36.5397 -92.2992 234° Southwest 417 480 38,000  Level Memphis Center
09:43PM 36.4753 -92.4164 236° Southwest 417 480 38,000  Level Memphis Center
09:44PM 36.4108 -92.5256 234° Southwest 417 480 38,000  Level Memphis Center
09:45PM 36.3464 -92.6397 235° Southwest 417 480 38,000  Level Memphis Center
09:46PM 36.2794 -92.7539 234° Southwest 417 480 38,000  Level Memphis Center
09:47PM 36.2169 -92.8653 235° Southwest 417 480 38,000  Level Memphis Center
09:48PM 36.1519 -92.9764 234° Southwest 412 474 38,000  Level Memphis Center
09:49PM 36.0872 -93.0872 234° Southwest 412 474 38,000  Level Memphis Center
09:50PM 36.0242 -93.1956 234° Southwest 406 467 38,000  Level Memphis Center
09:51PM 35.9611 -93.3061 235° Southwest 401 461 38,000  Level Memphis Center
09:52PM 35.9025 -93.4092 235° Southwest 390 449 38,000  Level Memphis Center
09:53PM 35.8417 -93.5092 233° Southwest 379 436 38,000 -540 Level Memphis Center
09:54PM 35.7806 -93.6119 234° Southwest 374 430 37,000 -540 Descending Memphis Center
09:55PM 35.7172 -93.7169 233° Southwest 379 436 37,000  Level Memphis Center
09:56PM 35.6558 -93.8267 235° Southwest 384 442 37,000  Level Memphis Center
09:57PM 35.5858 -93.9439 234° Southwest 390 449 37,000  Level Memphis Center
09:58PM 35.5203 -94.0481 232° Southwest 390 449 37,000  Level Memphis Center
09:59PM 35.4586 -94.1575 235° Southwest 390 449 37,000  Level Memphis Center
10:00PM 35.3925 -94.2639 233° Southwest 395 455 37,000  Level Memphis Center
10:01PM 35.3061 -94.3592 222° Southwest 405 466 37,000  Level Memphis Center
10:04PM 35.1297 -94.5528 222° Southwest 415 478 37,000  Level Fort Worth Center
10:05PM 35.0442 -94.6442 221° Southwest 433 498 37,000  Level Fort Worth Center
10:06PM 34.9647 -94.7331 223° Southwest 415 478 37,000  Level Fort Worth Center
10:07PM 34.8831 -94.8217 222° Southwest 392 451 37,000  Level Fort Worth Center
10:08PM 34.7975 -94.9153 222° Southwest 360 414 37,000 -60 Level Fort Worth Center
10:09PM 34.7117 -95.0061 221° Southwest 396 456 36,900 -900 Descending Fort Worth Center
10:10PM 34.6278 -95.0969 222° Southwest 403 464 35,300 -1,620 Descending Fort Worth Center
10:11PM 34.5500 -95.1772 220° Southwest 398 458 33,700 -1,620 Descending Fort Worth Center
10:12PM 34.4742 -95.2622 223° Southwest 382 440 32,100 -1,560 Descending Fort Worth Center
10:13PM 34.4467 -95.3586 251° West 319 367 30,600 -1,560 Descending Fort Worth Center
10:14PM 34.4294 -95.4597 258° West 319 367 29,000 -1,620 Descending Fort Worth Center
10:15PM 34.4017 -95.5611 252° West 312 359 27,400 -1,500 Descending Fort Worth Center
10:16PM 34.3150 -95.6308 214° Southwest 317 365 26,000 -900 Descending Fort Worth Center
10:17PM 34.2306 -95.6953 212° Southwest 345 397 25,700 -900 Descending Fort Worth Center
10:18PM 34.1458 -95.7622 213° Southwest 359 413 24,200 -900 Descending Fort Worth Center
10:19PM 34.0653 -95.8339 216° Southwest 371 427 24,000 -600 Descending Fort Worth Center
10:20PM 33.9767 -95.9108 216° Southwest 383 441 23,100 -1,500 Descending Fort Worth Center
10:21PM 33.8961 -95.9822 216° Southwest 378 435 21,000 -2,100 Descending Fort Worth Center
10:22PM 33.8111 -96.0486 213° Southwest 372 428 19,000 -2,100 Descending Fort Worth Center
10:23PM 33.7325 -96.1147 215° Southwest 356 410 16,800 -2,160 Descending Fort Worth Center
10:24PM 33.6603 -96.1806 217° Southwest 344 396 14,700 -2,040 Descending Fort Worth Center
10:25PM 33.5836 -96.2442 215° Southwest 338 389 12,800 -1,860 Descending Fort Worth Center
10:26PM 33.5111 -96.3047 215° Southwest 338 389 11,000 -900 Descending Fort Worth Center
10:27PM 33.4406 -96.3656 216° Southwest 333 383 11,000 -300 Level Fort Worth Center
10:28PM 33.3786 -96.4258 219° Southwest 301 346 10,500 -1,200 Descending Fort Worth Center
10:29PM 33.3289 -96.4836 224° Southwest 270 311 8,700 -1,800 Descending Fort Worth Center
10:30PM 33.2958 -96.5536 241° Southwest 250 288 7,000 -1,680 Descending Fort Worth Center
10:31PM 33.2694 -96.6308 248° West 250 288 5,400 -1,020 Descending Fort Worth Center
10:32PM 33.2469 -96.7081 251° West 255 293 5,000 -240 Descending Fort Worth Center
10:33PM 33.2222 -96.7853 249° West 249 287 5,000  Level Fort Worth Center
10:34PM 33.1994 -96.8572 249° West 249 287 5,000 -360 Level Fort Worth Center
10:35PM 33.1769 -96.9219 247° West 234 269 4,300 -1,020 Descending Fort Worth Center
10:36PM 33.1436 -96.9717 231° Southwest 197 227 3,000 -660 Descending Fort Worth Center
10:37PM 33.1019 -97.0067 215° Southwest 182 209 3,000  Level Fort Worth Center
10:37PM 33.0833 -97.0167 204° Southwest 159 183 3,000  Level Dallas / Fort Worth TRACON
10:38PM 33.0500 -97.0333 203° Southwest 137 158 3,000 -300 Level Dallas / Fort Worth TRACON
10:39PM 33.0167 -97.0333 180° South 136 157 2,500 -540 Descending Dallas / Fort Worth TRACON